Time,TemperatureF,DewpointF,PressureIn,WindDirection,WindDirectionDegrees,WindSpeedMPH,WindSpeedGustMPH,Humidity,HourlyPrecipIn,Conditions,Clouds,dailyrainin,SolarRadiationWatts/m^2,SoftwareType,DateUTC
2013-12-09 00:02:00,-8.0,-16.0,-100.00,ESE,119,5.0,7.0,67,0.00,,,0.00,0.000000,,2013-12-09 07:02:00,
2013-12-09 00:11:00,-8.0,-16.0,-100.00,ESE,119,5.0,7.0,67,0.00,,,0.00,0.000000,,2013-12-09 07:11:00,
2013-12-09 00:42:00,-7.0,-16.0,-100.00,SE,143,6.0,9.0,65,0.00,,,0.00,0.000000,,2013-12-09 07:42:00,
2013-12-09 00:52:00,-7.0,-16.0,-100.00,SE,143,6.0,9.0,65,0.00,,,0.00,0.000000,,2013-12-09 07:52:00,
2013-12-09 01:02:00,-7.0,-16.0,-100.00,SE,143,6.0,9.0,65,0.00,,,0.00,0.000000,,2013-12-09 08:02:00,
2013-12-09 01:11:00,-7.0,-16.0,-100.00,SE,143,6.0,9.0,65,0.00,,,0.00,0.000000,,2013-12-09 08:11:00,
2013-12-09 01:42:00,-7.0,-15.0,-100.00,SE,139,5.0,8.0,67,0.00,,,0.00,0.000000,,2013-12-09 08:42:00,
2013-12-09 01:52:00,-7.0,-15.0,-100.00,SE,139,5.0,8.0,67,0.00,,,0.00,0.000000,,2013-12-09 08:52:00,
2013-12-09 02:02:00,-7.0,-15.0,-100.00,SE,139,5.0,8.0,67,0.00,,,0.00,0.000000,,2013-12-09 09:02:00,
2013-12-09 02:12:00,-7.0,-15.0,-100.00,SE,139,5.0,8.0,67,0.00,,,0.00,0.000000,,2013-12-09 09:12:00,
2013-12-09 02:43:00,-2.0,-11.0,-100.00,SE,141,6.0,9.0,66,0.00,,,0.00,0.000000,,2013-12-09 09:43:00,
2013-12-09 03:43:00,-4.0,-15.0,-100.00,SSE,168,2.0,11.0,59,-99.99,,,0.00,0.000000,,2013-12-09 10:43:00,
2013-12-09 03:53:00,-4.0,-15.0,-100.00,SSE,168,2.0,11.0,59,-99.99,,,0.00,0.000000,,2013-12-09 10:53:00,
2013-12-09 04:02:00,-4.0,-15.0,-100.00,SSE,168,2.0,11.0,59,-99.99,,,0.00,0.000000,,2013-12-09 11:02:00,
2013-12-09 04:12:00,-4.0,-15.0,-100.00,SSE,168,2.0,11.0,59,-99.99,,,0.00,0.000000,,2013-12-09 11:12:00,
2013-12-09 04:53:00,2.0,-8.0,-100.00,SSE,151,6.0,11.0,61,0.00,,,0.00,0.000000,,2013-12-09 11:53:00,
2013-12-09 05:02:00,2.0,-8.0,-100.00,SSE,151,6.0,11.0,61,0.00,,,0.00,0.000000,,2013-12-09 12:02:00,
2013-12-09 05:12:00,2.0,-8.0,-100.00,SSE,151,6.0,11.0,61,0.00,,,0.00,0.000000,,2013-12-09 12:12:00,
2013-12-09 05:42:00,4.0,-7.0,-100.00,SSE,151,6.0,13.0,59,0.00,,,0.00,0.000000,,2013-12-09 12:42:00,
2013-12-09 05:52:00,4.0,-7.0,-100.00,SSE,151,6.0,13.0,59,0.00,,,0.00,0.000000,,2013-12-09 12:52:00,
2013-12-09 06:02:00,4.0,-7.0,-100.00,SSE,151,6.0,13.0,59,0.00,,,0.00,0.000000,,2013-12-09 13:02:00,
2013-12-09 07:42:00,7.0,-1.0,-100.00,SSE,155,6.0,10.0,70,0.00,,,0.00,0.000000,,2013-12-09 14:42:00,
2013-12-09 07:52:00,7.0,-1.0,-100.00,SSE,155,6.0,10.0,70,0.00,,,0.00,0.000000,,2013-12-09 14:52:00,
2013-12-09 08:02:00,7.0,-1.0,-100.00,SSE,155,6.0,10.0,70,0.00,,,0.00,0.000000,,2013-12-09 15:02:00,
2013-12-09 08:11:00,7.0,-1.0,-100.00,SSE,155,6.0,10.0,70,0.00,,,0.00,0.000000,,2013-12-09 15:11:00,
2013-12-09 08:43:00,9.0,-1.0,-100.00,SE,143,6.0,10.0,64,0.00,,,0.00,0.000000,,2013-12-09 15:43:00,
2013-12-09 08:53:00,9.0,-1.0,-100.00,SE,143,6.0,10.0,64,0.00,,,0.00,0.000000,,2013-12-09 15:53:00,
2013-12-09 09:03:00,9.0,-1.0,-100.00,SE,143,6.0,10.0,64,0.00,,,0.00,0.000000,,2013-12-09 16:03:00,
2013-12-09 09:13:00,9.0,-1.0,-100.00,SE,143,6.0,10.0,64,0.00,,,0.00,0.000000,,2013-12-09 16:13:00,
2013-12-09 09:43:00,11.0,0.0,-100.00,SE,142,7.0,11.0,61,0.00,,,0.00,23.000000,,2013-12-09 16:43:00,
2013-12-09 09:53:00,11.0,0.0,-100.00,SE,142,7.0,11.0,61,0.00,,,0.00,23.000000,,2013-12-09 16:53:00,
2013-12-09 10:02:00,11.0,0.0,-100.00,SE,142,7.0,11.0,61,0.00,,,0.00,23.000000,,2013-12-09 17:02:00,
2013-12-09 10:12:00,11.0,0.0,-100.00,SE,142,7.0,11.0,61,0.00,,,0.00,23.000000,,2013-12-09 17:12:00,
2013-12-09 10:42:00,13.0,2.0,-100.00,SSE,164,8.0,15.0,61,0.00,,,0.00,89.000000,,2013-12-09 17:42:00,
2013-12-09 10:53:00,13.0,2.0,-100.00,SSE,164,8.0,15.0,61,0.00,,,0.00,89.000000,,2013-12-09 17:53:00,
2013-12-09 11:02:00,13.0,2.0,-100.00,SSE,164,8.0,15.0,61,0.00,,,0.00,89.000000,,2013-12-09 18:02:00,
2013-12-09 11:12:00,13.0,2.0,-100.00,SSE,164,8.0,15.0,61,0.00,,,0.00,89.000000,,2013-12-09 18:12:00,
2013-12-09 11:43:00,16.0,5.0,-100.00,South,178,9.0,13.0,60,0.00,,,0.00,110.000000,,2013-12-09 18:43:00,
2013-12-09 12:43:00,18.0,5.0,-100.00,South,181,10.0,16.0,57,0.00,,,0.00,200.000000,,2013-12-09 19:43:00,
2013-12-09 12:52:00,18.0,5.0,-100.00,South,181,10.0,16.0,57,0.00,,,0.00,200.000000,,2013-12-09 19:52:00,
2013-12-09 13:02:00,18.0,5.0,-100.00,South,181,10.0,16.0,57,0.00,,,0.00,200.000000,,2013-12-09 20:02:00,
2013-12-09 13:11:00,18.0,5.0,-100.00,South,181,10.0,16.0,57,0.00,,,0.00,200.000000,,2013-12-09 20:11:00,
2013-12-09 13:42:00,19.0,7.0,-100.00,SSW,197,9.0,14.0,58,0.00,,,0.00,122.000000,,2013-12-09 20:42:00,
2013-12-09 13:53:00,19.0,7.0,-100.00,SSW,197,9.0,14.0,58,0.00,,,0.00,122.000000,,2013-12-09 20:53:00,
2013-12-09 14:02:00,19.0,7.0,-100.00,SSW,197,9.0,14.0,58,0.00,,,0.00,122.000000,,2013-12-09 21:02:00,
2013-12-09 14:11:00,19.0,7.0,-100.00,SSW,197,9.0,14.0,58,0.00,,,0.00,122.000000,,2013-12-09 21:11:00,
2013-12-09 14:44:00,19.0,6.0,-100.00,South,190,9.0,14.0,57,0.00,,,0.00,81.000000,,2013-12-09 21:44:00,
2013-12-09 14:53:00,19.0,6.0,-100.00,South,190,9.0,14.0,57,0.00,,,0.00,81.000000,,2013-12-09 21:53:00,
2013-12-09 15:03:00,19.0,6.0,-100.00,South,190,9.0,14.0,57,0.00,,,0.00,81.000000,,2013-12-09 22:03:00,
2013-12-09 15:13:00,19.0,6.0,-100.00,South,190,9.0,14.0,57,0.00,,,0.00,81.000000,,2013-12-09 22:13:00,
2013-12-09 15:53:00,19.0,9.0,-100.00,SSE,167,9.0,15.0,64,0.00,,,0.00,60.000000,,2013-12-09 22:53:00,
2013-12-09 16:02:00,19.0,9.0,-100.00,SSE,167,9.0,15.0,64,0.00,,,0.00,60.000000,,2013-12-09 23:02:00,
2013-12-09 16:11:00,19.0,9.0,-100.00,SSE,167,9.0,15.0,64,0.00,,,0.00,60.000000,,2013-12-09 23:11:00,
2013-12-09 16:43:00,18.0,11.0,-100.00,South,169,9.0,15.0,73,0.00,,,0.00,31.000000,,2013-12-09 23:43:00,
2013-12-09 16:53:00,18.0,11.0,-100.00,South,169,9.0,15.0,73,0.00,,,0.00,31.000000,,2013-12-09 23:53:00,
2013-12-09 17:02:00,18.0,11.0,-100.00,South,169,9.0,15.0,73,0.00,,,0.00,31.000000,,2013-12-10 00:02:00,
2013-12-09 17:12:00,18.0,11.0,-100.00,South,169,9.0,15.0,73,0.00,,,0.00,31.000000,,2013-12-10 00:12:00,
2013-12-09 17:42:00,19.0,9.0,-100.00,SSE,158,9.0,14.0,65,0.00,,,0.00,3.000000,,2013-12-10 00:42:00,
2013-12-09 17:53:00,19.0,9.0,-100.00,SSE,158,9.0,14.0,65,0.00,,,0.00,3.000000,,2013-12-10 00:53:00,
2013-12-09 18:02:00,19.0,9.0,-100.00,SSE,158,9.0,14.0,65,0.00,,,0.00,3.000000,,2013-12-10 01:02:00,
2013-12-09 18:11:00,19.0,9.0,-100.00,SSE,158,9.0,14.0,65,0.00,,,0.00,3.000000,,2013-12-10 01:11:00,
2013-12-09 18:42:00,20.0,9.0,-100.00,SSE,153,9.0,16.0,61,0.00,,,0.00,0.000000,,2013-12-10 01:42:00,
2013-12-09 18:52:00,20.0,9.0,-100.00,SSE,153,9.0,16.0,61,0.00,,,0.00,0.000000,,2013-12-10 01:52:00,
2013-12-09 19:01:00,20.0,9.0,-100.00,SSE,153,9.0,16.0,61,0.00,,,0.00,0.000000,,2013-12-10 02:01:00,
2013-12-09 19:11:00,20.0,9.0,-100.00,SSE,153,9.0,16.0,61,0.00,,,0.00,0.000000,,2013-12-10 02:11:00,
2013-12-09 19:42:00,20.0,8.0,-100.00,SSE,156,7.0,14.0,58,0.00,,,0.00,0.000000,,2013-12-10 02:42:00,
2013-12-09 19:52:00,20.0,8.0,-100.00,SSE,156,7.0,14.0,58,0.00,,,0.00,0.000000,,2013-12-10 02:52:00,
2013-12-09 20:02:00,20.0,8.0,-100.00,SSE,156,7.0,14.0,58,0.00,,,0.00,0.000000,,2013-12-10 03:02:00,
2013-12-09 20:11:00,20.0,8.0,-100.00,SSE,156,7.0,14.0,58,0.00,,,0.00,0.000000,,2013-12-10 03:11:00,
2013-12-09 20:43:00,20.0,8.0,-100.00,South,171,7.0,12.0,59,0.00,,,0.00,0.000000,,2013-12-10 03:43:00,
2013-12-09 20:53:00,20.0,8.0,-100.00,South,171,7.0,12.0,59,0.00,,,0.00,0.000000,,2013-12-10 03:53:00,
2013-12-09 21:03:00,20.0,8.0,-100.00,South,171,7.0,12.0,59,0.00,,,0.00,0.000000,,2013-12-10 04:03:00,
2013-12-09 21:43:00,20.0,8.0,-100.00,SE,128,7.0,12.0,59,0.00,,,0.00,0.000000,,2013-12-10 04:43:00,
2013-12-09 21:53:00,20.0,8.0,-100.00,SE,128,7.0,12.0,59,0.00,,,0.00,0.000000,,2013-12-10 04:53:00,
2013-12-09 22:02:00,20.0,8.0,-100.00,SE,128,7.0,12.0,59,0.00,,,0.00,0.000000,,2013-12-10 05:02:00,
2013-12-09 22:12:00,20.0,8.0,-100.00,SE,128,7.0,12.0,59,0.00,,,0.00,0.000000,,2013-12-10 05:12:00,
2013-12-09 22:42:00,21.0,10.0,-100.00,SSE,156,10.0,14.0,62,0.00,,,0.00,0.000000,,2013-12-10 05:42:00,
2013-12-09 22:53:00,21.0,10.0,-100.00,SSE,156,10.0,14.0,62,0.00,,,0.00,0.000000,,2013-12-10 05:53:00,
2013-12-09 23:02:00,21.0,10.0,-100.00,SSE,156,10.0,14.0,62,0.00,,,0.00,0.000000,,2013-12-10 06:02:00,
2013-12-09 23:11:00,21.0,10.0,-100.00,SSE,156,10.0,14.0,62,0.00,,,0.00,0.000000,,2013-12-10 06:11:00,
2013-12-09 23:42:00,21.0,9.0,-100.00,SSE,158,10.0,17.0,60,0.00,,,0.00,0.000000,,2013-12-10 06:42:00,
2013-12-09 23:52:00,21.0,9.0,-100.00,SSE,158,10.0,17.0,60,0.00,,,0.00,0.000000,,2013-12-10 06:52:00,